createdAt,value
2022-11-24T00:00:54.555Z,99996.44
2022-11-24T00:03:22.400Z,99998.22
2022-11-24T00:05:50.233Z,99997.44
2022-11-24T00:08:19.358Z,100002.09
2022-11-24T00:10:47.063Z,100010.00
2022-11-24T00:13:14.787Z,100032.00
2022-11-24T00:15:42.453Z,100048.16
2022-11-24T00:18:10.258Z,100047.69
2022-11-24T00:20:38.029Z,100041.06
2022-11-24T00:23:05.751Z,100041.97
2022-11-24T00:25:34.793Z,100046.44
2022-11-24T00:28:02.511Z,100049.94
2022-11-24T00:30:30.235Z,100057.25
2022-11-24T00:32:58.086Z,100049.47
2022-11-24T00:35:25.775Z,100038.34
2022-11-24T00:37:53.965Z,100048.81
2022-11-24T00:40:21.679Z,100055.28
2022-11-24T00:42:50.714Z,100067.59
2022-11-24T00:45:18.411Z,100064.78
2022-11-24T00:47:46.126Z,100062.47
2022-11-24T00:50:13.822Z,100066.16
2022-11-24T00:52:41.471Z,100063.19
2022-11-24T00:55:09.373Z,100069.81
2022-11-24T00:57:37.046Z,100064.56
2022-11-24T01:00:07.481Z,100068.81
2022-11-24T01:02:35.250Z,100069.16
2022-11-24T01:05:03.289Z,100062.78
2022-11-24T01:07:31.969Z,100074.47
2022-11-24T01:09:59.766Z,100061.56
2022-11-24T01:12:27.565Z,100083.78
2022-11-24T01:14:55.399Z,100080.63
2022-11-24T01:17:24.413Z,100079.19
2022-11-24T01:19:52.127Z,100073.19
2022-11-24T01:22:19.786Z,100076.97
2022-11-24T01:24:47.465Z,100069.69
2022-11-24T01:27:15.151Z,100066.75
2022-11-24T01:29:42.911Z,100078.84
2022-11-24T01:32:10.584Z,100076.59
2022-11-24T01:34:39.770Z,100086.00
2022-11-24T01:37:07.482Z,100091.91
2022-11-24T01:39:35.145Z,100093.75
2022-11-24T01:42:03.127Z,100099.59
2022-11-24T01:44:33.542Z,100109.34
2022-11-24T01:47:03.845Z,100100.72
2022-11-24T01:49:40.947Z,100107.53
2022-11-24T01:52:13.683Z,100105.41
2022-11-24T01:54:46.517Z,100101.19
2022-11-24T01:57:18.510Z,100113.38
2022-11-24T01:59:49.567Z,100110.50
2022-11-24T02:02:18.467Z,100102.72
2022-11-24T02:04:48.817Z,100115.81
2022-11-24T02:07:16.814Z,100118.41
2022-11-24T02:09:50.556Z,100113.66
2022-11-24T02:12:18.260Z,100120.81
2022-11-24T02:14:47.297Z,100128.09
2022-11-24T02:17:15.041Z,100132.50
2022-11-24T02:19:54.818Z,100133.72
2022-11-24T02:22:30.385Z,100137.69
2022-11-24T02:25:07.551Z,100141.69
2022-11-24T02:27:36.869Z,100148.47
2022-11-24T02:30:05.570Z,100160.16
2022-11-24T02:32:34.872Z,100152.69
2022-11-24T02:35:03.018Z,100158.50
2022-11-24T02:37:30.803Z,100150.41
2022-11-24T02:39:58.501Z,100151.88
2022-11-24T02:42:28.785Z,100148.91
2022-11-24T02:45:01.433Z,100153.47
2022-11-24T02:47:29.367Z,100153.00
2022-11-24T02:49:57.075Z,100155.72
2022-11-24T02:52:24.901Z,100168.34
2022-11-24T02:54:52.616Z,100161.38
2022-11-24T02:57:20.338Z,100173.91
2022-11-24T02:59:48.000Z,100168.47
2022-11-24T03:02:17.119Z,100173.69
2022-11-24T03:04:45.451Z,100177.25
2022-11-24T03:07:13.232Z,100171.88
2022-11-24T03:09:40.991Z,100175.16
2022-11-24T03:12:09.014Z,100176.16
2022-11-24T03:14:37.049Z,100176.31
2022-11-24T03:17:05.158Z,100171.88
2022-11-24T03:19:34.246Z,100177.47
2022-11-24T03:22:01.976Z,100174.25
2022-11-24T03:24:29.659Z,100179.97
2022-11-24T03:26:57.465Z,100186.16
2022-11-24T03:29:25.233Z,100176.09
2022-11-24T03:31:53.216Z,100170.25
2022-11-24T03:34:20.921Z,100178.25
2022-11-24T03:36:49.929Z,100181.66
2022-11-24T03:39:17.614Z,100180.66
2022-11-24T03:41:45.325Z,100186.84
2022-11-24T03:44:13.009Z,100191.09
2022-11-24T03:46:40.769Z,100182.00
2022-11-24T03:49:08.456Z,100142.41
2022-11-24T03:51:36.088Z,100182.34
2022-11-24T03:54:05.681Z,100190.13
2022-11-24T03:56:33.372Z,100182.56
2022-11-24T03:59:01.108Z,100189.63
2022-11-24T04:01:28.802Z,100202.78
2022-11-24T04:03:56.662Z,100206.63
2022-11-24T04:06:24.321Z,100207.63
2022-11-24T04:08:52.098Z,100218.47
2022-11-24T04:11:38.612Z,100216.03
2022-11-24T04:14:10.549Z,100228.28
2022-11-24T04:16:41.054Z,100235.63
2022-11-24T04:19:08.778Z,100234.06
2022-11-24T04:21:36.607Z,100235.34
2022-11-24T04:24:04.219Z,100248.16
2022-11-24T04:26:33.188Z,100245.22
2022-11-24T04:29:00.810Z,100246.94
2022-11-24T04:31:28.456Z,100251.16
2022-11-24T04:33:56.048Z,100256.13
2022-11-24T04:36:23.627Z,100254.31
2022-11-24T04:39:23.901Z,100261.59
2022-11-24T04:41:42.240Z,100273.31
2022-11-24T04:44:09.833Z,100269.66
2022-11-24T04:46:37.496Z,100274.13
2022-11-24T04:49:05.468Z,100277.38
2022-11-24T04:51:33.348Z,100286.63
2022-11-24T04:54:00.964Z,100281.00
2022-11-24T04:56:28.477Z,100277.53
2022-11-24T04:58:57.417Z,100294.34
2022-11-24T05:01:25.048Z,100298.09
2022-11-24T05:03:54.427Z,100296.59
2022-11-24T05:06:22.457Z,100309.63
2022-11-24T05:08:50.860Z,100313.09
2022-11-24T05:11:19.311Z,100322.28
2022-11-24T05:13:47.038Z,100323.34
2022-11-24T05:16:16.341Z,100323.25
2022-11-24T05:18:43.978Z,100323.63
2022-11-24T05:21:11.563Z,100336.03
2022-11-24T05:23:39.243Z,100349.31
2022-11-24T05:26:07.311Z,100352.91
2022-11-24T05:28:34.966Z,100346.16
2022-11-24T05:31:03.602Z,100354.59
2022-11-24T05:33:33.937Z,100368.28
2022-11-24T05:36:03.063Z,100380.00
2022-11-24T05:38:30.926Z,100379.66
2022-11-24T05:41:01.472Z,100357.03
2022-11-24T05:43:29.188Z,100372.34
2022-11-24T05:45:59.929Z,100386.22
2022-11-24T05:48:27.742Z,100390.06
2022-11-24T05:50:57.706Z,100398.22
2022-11-24T05:53:26.958Z,100399.25
2022-11-24T05:55:54.684Z,100406.09
2022-11-24T05:58:22.377Z,100409.50
2022-11-24T06:00:50.047Z,100415.50
2022-11-24T06:03:17.751Z,100423.63
2022-11-24T06:05:47.244Z,100427.19
2022-11-24T06:08:16.455Z,100428.47
2022-11-24T06:10:44.067Z,100427.81
2022-11-24T06:13:11.672Z,100426.38
2022-11-24T06:15:40.782Z,100437.56
2022-11-24T06:18:08.391Z,100434.81
2022-11-24T06:20:36.116Z,100439.69
2022-11-24T06:23:03.757Z,100441.31
2022-11-24T06:25:32.717Z,100447.34
2022-11-24T06:28:04.677Z,100451.06
2022-11-24T06:30:32.325Z,100458.69
2022-11-24T06:32:59.953Z,100472.94
2022-11-24T06:35:27.564Z,100471.00
2022-11-24T06:37:55.093Z,100468.91
2022-11-24T06:40:22.680Z,100471.84
2022-11-24T06:42:55.379Z,100475.56
2022-11-24T06:45:23.397Z,100484.31
2022-11-24T06:47:51.079Z,100478.13
2022-11-24T06:50:18.679Z,100495.97
2022-11-24T06:52:46.298Z,100499.41
2022-11-24T06:55:14.056Z,100506.03
2022-11-24T06:57:41.806Z,100502.16
2022-11-24T07:00:12.001Z,100508.47
2022-11-24T07:02:45.460Z,100507.34
2022-11-24T07:05:13.647Z,100513.81
2022-11-24T07:07:41.271Z,100517.41
2022-11-24T07:10:09.456Z,100508.47
2022-11-24T07:12:37.110Z,100519.66
2022-11-24T07:15:05.382Z,100527.44
2022-11-24T07:17:36.753Z,100531.97
2022-11-24T07:20:04.929Z,100528.25
2022-11-24T07:22:32.555Z,100518.38
2022-11-24T07:25:00.170Z,100540.44
2022-11-24T07:27:28.110Z,100553.44
2022-11-24T07:29:55.768Z,100557.47
2022-11-24T07:32:23.407Z,100560.22
2022-11-24T07:34:52.431Z,100562.50
2022-11-24T07:37:20.015Z,100580.66
2022-11-24T07:39:47.664Z,100576.44
2022-11-24T07:42:15.252Z,100583.59
2022-11-24T07:44:42.779Z,100588.59
2022-11-24T07:47:10.397Z,100602.41
2022-11-24T07:49:38.150Z,100606.97
2022-11-24T07:52:09.478Z,100603.72
2022-11-24T07:54:37.221Z,100615.41
2022-11-24T07:57:04.798Z,100618.81
2022-11-24T07:59:32.474Z,100625.94
2022-11-24T08:02:00.326Z,100633.25
2022-11-24T08:04:28.073Z,100648.69
2022-11-24T08:06:56.893Z,100635.19
2022-11-24T08:09:25.942Z,100637.47
2022-11-24T08:11:53.565Z,100640.72
2022-11-24T08:14:21.193Z,100639.75
2022-11-24T08:16:48.833Z,100633.41
2022-11-24T08:19:16.495Z,100641.53
2022-11-24T08:21:44.190Z,100641.88
2022-11-24T08:24:13.899Z,100656.31
2022-11-24T08:26:43.052Z,100653.38
2022-11-24T08:29:11.018Z,100661.97
2022-11-24T08:31:40.145Z,100658.06
2022-11-24T08:34:08.033Z,100665.84
2022-11-24T08:36:35.820Z,100668.13
2022-11-24T08:39:03.978Z,100666.97
2022-11-24T08:41:32.275Z,100672.66
2022-11-24T08:44:01.509Z,100672.31
2022-11-24T08:46:29.164Z,100676.69
2022-11-24T08:48:56.998Z,100681.25
2022-11-24T08:51:26.867Z,100652.16
2022-11-24T08:53:56.678Z,100695.06
2022-11-24T08:56:24.946Z,100701.41
2022-11-24T08:58:52.676Z,100706.13
2022-11-24T09:01:21.791Z,100698.97
2022-11-24T09:03:51.397Z,100701.94
2022-11-24T09:06:22.614Z,100708.44
2022-11-24T09:08:50.530Z,100709.56
2022-11-24T09:11:19.108Z,100705.53
2022-11-24T09:13:47.102Z,100704.06
2022-11-24T09:16:16.761Z,100705.34
2022-11-24T09:18:46.389Z,100706.50
2022-11-24T09:21:17.077Z,100679.88
2022-11-24T09:23:45.680Z,100702.75
2022-11-24T09:26:15.830Z,100717.06
2022-11-24T09:28:44.016Z,100727.13
2022-11-24T09:31:14.335Z,100727.28
2022-11-24T09:33:42.581Z,100715.28
2022-11-24T09:36:12.205Z,100726.47
2022-11-24T09:38:40.141Z,100733.16
2022-11-24T09:41:38.403Z,100734.59
2022-11-24T09:44:14.203Z,100742.69
2022-11-24T09:46:54.984Z,100744.19
2022-11-24T09:49:31.042Z,100753.09
2022-11-24T09:52:04.354Z,100753.44
2022-11-24T09:54:36.019Z,100765.47
2022-11-24T09:57:07.603Z,100761.06
2022-11-24T09:59:35.413Z,100759.09
2022-11-24T10:02:03.292Z,100772.59
2022-11-24T10:04:36.178Z,100771.91
2022-11-24T10:07:16.508Z,100779.09
2022-11-24T10:09:58.750Z,100783.59
2022-11-24T10:12:43.471Z,100781.78
2022-11-24T10:15:25.426Z,100784.88
2022-11-24T10:18:05.658Z,100787.81
2022-11-24T10:20:50.454Z,100792.22
2022-11-24T10:23:35.771Z,100795.31
2022-11-24T10:26:13.566Z,100805.06
2022-11-24T10:28:44.969Z,100804.81
2022-11-24T10:31:23.872Z,100808.28
2022-11-24T10:33:52.292Z,100816.97
2022-11-24T10:36:25.297Z,100813.31
2022-11-24T10:39:02.657Z,100816.50
2022-11-24T10:41:40.678Z,100814.44
2022-11-24T10:44:13.960Z,100818.91
2022-11-24T10:46:41.970Z,100832.97
2022-11-24T10:49:18.940Z,100830.44
2022-11-24T10:52:02.108Z,100837.47
2022-11-24T10:54:31.172Z,100842.25
2022-11-24T10:56:59.304Z,100837.97
2022-11-24T10:59:38.729Z,100836.16
2022-11-24T11:02:39.320Z,100835.94
2022-11-24T11:05:35.113Z,100834.97
2022-11-24T11:08:16.979Z,100842.03
2022-11-24T11:10:46.969Z,100840.09
2022-11-24T11:13:26.700Z,100839.00
2022-11-24T11:15:54.783Z,100846.16
2022-11-24T11:18:23.449Z,100853.13
2022-11-24T11:20:54.358Z,100856.25
2022-11-24T11:23:27.701Z,100842.25
2022-11-24T11:26:32.020Z,100856.41
2022-11-24T11:34:48.490Z,100855.47
2022-11-24T11:37:16.983Z,100850.59
2022-11-24T11:39:49.011Z,100844.47
2022-11-24T11:43:00.159Z,100853.03
2022-11-24T11:45:17.244Z,100844.47
2022-11-24T11:47:50.921Z,100852.94
2022-11-24T11:50:25.297Z,100854.78
2022-11-24T11:53:04.704Z,100849.78
2022-11-24T11:55:49.737Z,100856.28
2022-11-24T11:58:32.498Z,100855.16
2022-11-24T12:01:12.697Z,100860.53
2022-11-24T12:04:05.466Z,100853.03
2022-11-24T12:06:54.805Z,100859.06
2022-11-24T12:09:35.665Z,100847.03
2022-11-24T12:12:18.453Z,100858.56
2022-11-24T12:15:04.587Z,100864.94
2022-11-24T12:17:43.192Z,100868.19
2022-11-24T12:20:33.207Z,100866.03
2022-11-24T12:23:10.562Z,100863.72
2022-11-24T12:25:41.940Z,100868.28
2022-11-24T12:28:25.742Z,100868.25
2022-11-24T12:31:04.472Z,100866.63
2022-11-24T12:33:39.903Z,100841.13
2022-11-24T12:36:17.406Z,100873.41
2022-11-24T12:38:57.097Z,100876.13
2022-11-24T12:41:42.857Z,100876.50
2022-11-24T12:44:28.267Z,100891.34
2022-11-24T12:47:04.509Z,100886.56
2022-11-24T12:49:41.162Z,100885.66
2022-11-24T12:52:20.611Z,100891.19
2022-11-24T12:54:48.181Z,100891.84
2022-11-24T12:57:22.125Z,100899.84
2022-11-24T12:59:58.848Z,100889.16
2022-11-24T13:02:37.876Z,100880.72
2022-11-24T13:05:19.935Z,100871.44
2022-11-24T13:07:50.012Z,100881.41
2022-11-24T13:13:27.205Z,100882.28
2022-11-24T13:19:09.092Z,100887.28
2022-11-24T13:21:57.664Z,100880.25
2022-11-24T13:24:31.361Z,100878.94
2022-11-24T13:27:27.063Z,100871.72
2022-11-24T13:29:55.302Z,100879.22
2022-11-24T13:33:03.086Z,100881.00
2022-11-24T13:35:32.065Z,100886.69
2022-11-24T13:37:59.685Z,100889.47
2022-11-24T13:40:54.298Z,100887.50
2022-11-24T13:43:30.377Z,100892.44
2022-11-24T13:45:57.974Z,100893.13
2022-11-24T13:48:54.797Z,100889.09
2022-11-24T13:51:25.777Z,100883.59
2022-11-24T13:53:56.538Z,100888.31
2022-11-24T13:56:29.694Z,100892.38
2022-11-24T13:59:00.755Z,100876.50
2022-11-24T14:01:29.660Z,100888.50
2022-11-24T14:04:33.572Z,100889.25
2022-11-24T14:07:08.316Z,100887.38
2022-11-24T14:09:42.042Z,100884.84
2022-11-24T14:12:16.207Z,100887.75
2022-11-24T14:14:45.546Z,100880.09
2022-11-24T14:17:19.419Z,100880.25
2022-11-24T14:19:48.955Z,100876.94
2022-11-24T14:22:20.963Z,100872.94
2022-11-24T14:24:54.041Z,100873.28
2022-11-24T14:27:29.273Z,100874.63
2022-11-24T14:29:58.406Z,100872.84
2022-11-24T14:32:26.342Z,100870.81
2022-11-24T14:34:54.492Z,100873.41
2022-11-24T14:37:23.884Z,100880.44
2022-11-24T14:39:51.608Z,100871.78
2022-11-24T14:42:22.374Z,100872.16
2022-11-24T14:44:54.214Z,100870.88
2022-11-24T14:47:31.430Z,100871.53
2022-11-24T14:50:09.762Z,100873.34
2022-11-24T14:52:45.784Z,100871.88
2022-11-24T14:55:25.723Z,100865.72
2022-11-24T14:57:53.521Z,100867.69
2022-11-24T15:00:28.399Z,100869.31
2022-11-24T15:03:08.302Z,100879.44
2022-11-24T15:05:52.946Z,100879.88
2022-11-24T15:08:23.463Z,100879.63
2022-11-24T15:10:58.864Z,100877.41
2022-11-24T15:13:27.057Z,100867.84
2022-11-24T15:16:02.416Z,100877.72
2022-11-24T15:18:37.346Z,100884.59
2022-11-24T15:21:05.068Z,100880.69
2022-11-24T15:23:35.792Z,100889.97
2022-11-24T15:26:30.713Z,100888.53
2022-11-24T15:28:59.192Z,100889.84
2022-11-24T15:31:26.866Z,100886.44
2022-11-24T15:33:54.458Z,100892.13
2022-11-24T15:36:22.060Z,100889.03
2022-11-24T15:38:51.992Z,100888.03
2022-11-24T15:41:22.051Z,100891.63
2022-11-24T15:43:49.756Z,100885.13
2022-11-24T15:46:17.470Z,100875.06
2022-11-24T15:48:45.228Z,100871.50
2022-11-24T15:51:15.608Z,100866.91
2022-11-24T15:53:46.258Z,100862.06
2022-11-24T15:56:20.087Z,100869.22
2022-11-24T15:58:48.416Z,100861.72
2022-11-24T16:01:16.084Z,100868.06
2022-11-24T16:03:48.520Z,100874.06
2022-11-24T16:06:24.143Z,100875.84
2022-11-24T16:08:52.582Z,100873.75
2022-11-24T16:11:21.564Z,100868.22
2022-11-24T16:13:53.073Z,100875.56
2022-11-24T16:16:22.336Z,100863.69
2022-11-24T16:18:49.971Z,100865.16
2022-11-24T16:21:17.613Z,100872.41
2022-11-24T16:23:45.617Z,100868.88
2022-11-24T16:26:13.274Z,100870.44
2022-11-24T16:28:42.771Z,100884.13
2022-11-24T16:31:10.470Z,100874.53
2022-11-24T16:33:40.779Z,100892.06
2022-11-24T16:36:09.310Z,100888.00
2022-11-24T16:38:36.988Z,100884.28
2022-11-24T16:41:04.662Z,100890.91
2022-11-24T16:43:32.367Z,100880.22
2022-11-24T16:46:19.289Z,100891.91
2022-11-24T16:48:48.135Z,100890.91
2022-11-24T16:51:16.666Z,100887.34
2022-11-24T16:53:44.959Z,100870.13
2022-11-24T16:56:13.240Z,100888.31
2022-11-24T16:58:42.257Z,100888.31
2022-11-24T17:01:12.632Z,100879.53
2022-11-24T17:03:41.341Z,100875.97
2022-11-24T17:06:11.252Z,100866.19
2022-11-24T17:08:40.439Z,100877.44
2022-11-24T17:11:08.752Z,100880.72
2022-11-24T17:13:36.425Z,100877.09
2022-11-24T17:16:06.148Z,100871.75
2022-11-24T17:18:35.859Z,100861.69
2022-11-24T17:21:09.095Z,100864.75
2022-11-24T17:23:37.306Z,100861.34
2022-11-24T17:26:06.427Z,100875.31
2022-11-24T17:28:34.936Z,100869.97
2022-11-24T17:31:07.081Z,100864.09
2022-11-24T17:33:36.657Z,100869.81
2022-11-24T17:36:04.993Z,100876.13
2022-11-24T17:38:32.685Z,100878.91
2022-11-24T17:41:00.326Z,100865.25
2022-11-24T17:43:28.212Z,100864.28
2022-11-24T17:45:57.293Z,100878.56
2022-11-24T17:48:25.258Z,100875.50
2022-11-24T17:51:01.488Z,100875.50
2022-11-24T17:53:29.244Z,100874.03
2022-11-24T17:56:00.855Z,100874.34
2022-11-24T17:58:29.110Z,100864.91
2022-11-24T18:00:57.253Z,100878.56
2022-11-24T18:03:25.546Z,100871.28
2022-11-24T18:05:53.123Z,100867.69
2022-11-24T18:08:22.264Z,100870.47
2022-11-24T18:10:49.884Z,100859.72
2022-11-24T18:13:34.168Z,100875.31
2022-11-24T18:16:08.201Z,100861.69
2022-11-24T18:18:40.139Z,100858.13
2022-11-24T18:21:12.750Z,100860.88
2022-11-24T18:23:42.488Z,100831.94
2022-11-24T18:26:12.738Z,100854.84
2022-11-24T18:28:40.464Z,100853.88
2022-11-24T18:31:11.022Z,100846.91
2022-11-24T18:33:39.451Z,100853.22
2022-11-24T18:36:08.323Z,100852.75
2022-11-24T18:38:36.337Z,100855.00
2022-11-24T18:41:06.762Z,100852.72
2022-11-24T18:43:38.023Z,100843.81
2022-11-24T18:46:07.577Z,100867.19
2022-11-24T18:48:36.027Z,100856.81
2022-11-24T18:51:03.812Z,100857.44
2022-11-24T18:53:32.334Z,100861.81
2022-11-24T18:56:02.146Z,100858.41
2022-11-24T18:58:32.304Z,100856.97
2022-11-24T19:01:07.984Z,100822.94
2022-11-24T19:03:37.950Z,100850.59
2022-11-24T19:06:06.899Z,100850.59
2022-11-24T19:08:35.091Z,100845.25
2022-11-24T19:11:02.761Z,100844.09
2022-11-24T19:13:31.662Z,100845.72
2022-11-24T19:16:00.345Z,100840.69
2022-11-24T19:18:29.665Z,100836.28
2022-11-24T19:20:57.399Z,100844.09
2022-11-24T19:23:25.277Z,100843.78
2022-11-24T19:25:52.937Z,100835.97
2022-11-24T19:28:20.575Z,100835.16
2022-11-24T19:30:49.611Z,100842.81
2022-11-24T19:33:18.792Z,100844.09
2022-11-24T19:35:46.409Z,100839.84
2022-11-24T19:38:15.310Z,100830.13
2022-11-24T19:40:42.990Z,100807.81
2022-11-24T19:43:10.587Z,100838.88
2022-11-24T19:45:43.830Z,100840.16
2022-11-24T19:48:12.889Z,100845.53
2022-11-24T19:50:40.566Z,100847.44
2022-11-24T19:53:08.178Z,100841.78
2022-11-24T19:55:35.790Z,100847.00
2022-11-24T19:58:03.307Z,100845.34
2022-11-24T20:00:32.220Z,100852.34
2022-11-24T20:03:00.052Z,100847.97
2022-11-24T20:05:29.129Z,100855.91
2022-11-24T20:07:56.826Z,100844.91
2022-11-24T20:10:24.763Z,100840.00
2022-11-24T20:12:52.360Z,100834.00
2022-11-24T20:15:20.586Z,100829.31
2022-11-24T20:17:48.205Z,100802.09
2022-11-24T20:20:15.878Z,100831.09
2022-11-24T20:22:44.801Z,100830.44
2022-11-24T20:25:12.463Z,100829.63
2022-11-24T20:27:40.097Z,100832.22
2022-11-24T20:30:09.205Z,100840.16
2022-11-24T20:32:36.994Z,100835.63
2022-11-24T20:35:04.862Z,100836.75
2022-11-24T20:37:34.025Z,100815.81
2022-11-24T20:40:04.135Z,100829.78
2022-11-24T20:42:32.788Z,100832.38
2022-11-24T20:45:00.993Z,100839.03
2022-11-24T20:47:30.743Z,100826.88
2022-11-24T20:49:58.321Z,100836.28
2022-11-24T20:52:25.891Z,100839.22
2022-11-24T20:54:53.455Z,100838.25
2022-11-24T20:57:22.387Z,100832.06
2022-11-24T20:59:49.986Z,100813.22
2022-11-24T21:02:17.586Z,100829.00
2022-11-24T21:04:45.218Z,100821.03
2022-11-24T21:07:14.664Z,100813.91
2022-11-24T21:09:42.341Z,100817.00
2022-11-24T21:12:10.074Z,100809.00
2022-11-24T21:14:39.178Z,100818.13
2022-11-24T21:17:07.002Z,100821.53
2022-11-24T21:19:34.696Z,100830.81
2022-11-24T21:22:02.271Z,100825.75
2022-11-24T21:24:30.931Z,100826.56
2022-11-24T21:26:58.511Z,100837.78
2022-11-24T21:29:26.221Z,100819.75
2022-11-24T21:31:55.160Z,100824.47
2022-11-24T21:34:22.853Z,100828.19
2022-11-24T21:36:50.687Z,100825.59
2022-11-24T21:39:18.889Z,100826.09
2022-11-24T21:41:46.481Z,100816.34
2022-11-24T21:44:14.781Z,100832.09
2022-11-24T21:46:48.189Z,100798.13
2022-11-24T21:49:20.018Z,100821.09
2022-11-24T21:51:49.818Z,100817.50
2022-11-24T21:54:17.373Z,100810.69
2022-11-24T21:56:45.013Z,100812.97
2022-11-24T21:59:12.608Z,100817.34
2022-11-24T22:01:40.338Z,100809.72
2022-11-24T22:04:08.016Z,100805.16
2022-11-24T22:06:37.014Z,100796.53
2022-11-24T22:09:04.690Z,100794.91
2022-11-24T22:11:32.394Z,100789.53
2022-11-24T22:14:00.134Z,100796.53
2022-11-24T22:16:27.854Z,100792.28
2022-11-24T22:18:55.443Z,100786.75
2022-11-24T22:21:29.752Z,100791.66
2022-11-24T22:23:58.726Z,100788.25
2022-11-24T22:26:27.438Z,100790.53
2022-11-24T22:28:56.201Z,100781.53
2022-11-24T22:31:25.317Z,100793.56
2022-11-24T22:33:53.809Z,100785.94
2022-11-24T22:36:22.961Z,100783.97
2022-11-24T22:38:54.773Z,100777.16
2022-11-24T22:41:23.893Z,100789.06
2022-11-24T22:43:51.574Z,100782.19
2022-11-24T22:46:21.281Z,100782.72
2022-11-24T22:48:52.850Z,100794.09
2022-11-24T22:51:21.876Z,100780.06
2022-11-24T22:53:50.937Z,100801.09
2022-11-24T22:56:19.578Z,100797.00
2022-11-24T22:58:48.888Z,100793.75
2022-11-24T23:01:18.548Z,100796.19
2022-11-24T23:03:46.641Z,100795.06
2022-11-24T23:06:17.670Z,100790.34
2022-11-24T23:08:45.573Z,100794.25
2022-11-24T23:11:15.678Z,100801.25
2022-11-24T23:13:43.599Z,100794.06
2022-11-24T23:16:14.798Z,100782.38
2022-11-24T23:18:43.042Z,100786.59
2022-11-24T23:21:16.844Z,100782.84
2022-11-24T23:23:44.848Z,100797.16
2022-11-24T23:26:14.024Z,100790.63
2022-11-24T23:28:43.135Z,100776.34
2022-11-24T23:31:13.635Z,100784.47
2022-11-24T23:33:42.021Z,100786.09
2022-11-24T23:36:11.536Z,100787.72
2022-11-24T23:38:39.479Z,100785.28
2022-11-24T23:41:10.685Z,100783.50
2022-11-24T23:43:40.197Z,100776.84
2022-11-24T23:46:09.919Z,100773.91
2022-11-24T23:48:39.799Z,100773.41
2022-11-24T23:51:08.679Z,100766.59
2022-11-24T23:53:36.850Z,100767.91
2022-11-24T23:56:05.190Z,100762.41
2022-11-24T23:58:33.107Z,100765.16
